Sun, 2021 September 19. @ 13:47 (Europe/Berlin) | Change timezone

Search

Search

Find competitions and teams quickly

Compare

Compare

Click on this h2h icon anywhere to compare teams and see statistics

Fixtures

Fixtures

View today's matches, tomorrow's fixtures, yesterday's results or fixtures on any specific date by using the calendar


Fixtures - 2021.08.21

Group by: leagues | time
Time Home Score Away 1 X 2 H2H
 Soccer Argentina Primera Division 2021
02:15 Independiente 0 : 0 Defensa y Justicia 2.05 3.27 3.57
18:00 Central Córdoba SdE 2 : 2 Platense 2.10 3.11 3.65
18:30 Godoy Cruz 1 : 1 Huracán 2.32 3.18 3.06
20:45 Velez Sarsfield 5 : 1 Lanus 2.12 3.18 3.51
23:00 Arsenal de Sarandí 0 : 3 Racing Club 4.09 3.06 1.99
 Soccer Austria 1. Liga 2021/2022
14:30 Horn 3 : 1 Dornbirn FC 1.72 3.88 4.01
 Soccer Austria Bundesliga 2021/2022
17:00 Wolfsberger AC 3 : 0 Admira/Wacker Mödling 1.96 3.74 3.47
17:00 Wattens 0 : 0 Rheindorf Altach SC 1.97 3.64 3.56
17:00 Salzburg RB 3 : 1 Austria Klagenfurt 1.11 9.27 18.30
 Basketball Basketball WNBA 2021
01:00 New York 83 : 99 Seattle 4.15 18.25 1.26
02:00 Dallas 81 : 83 Indiana 1.31 17.25 3.75
18:00 Atlanta 69 : 84 Phoenix 2.97 15.25 1.45
 Soccer Belarus Premier League 2021
15:00 Smorgon FC 1 : 1 Ruh Brest 8.88 4.69 1.31
15:00 Isloch Minsk 3 : 0 Sputnik - - -
17:00 Slavia Mozyr 0 : 4 Shakhtsyor Salihorsk 6.69 4.73 1.37
19:00 Gomel FC 2 : 0 Dynamo Minsk 2.88 3.20 2.27
 Soccer Belgium 1e Klasse 2021/2022
16:15 RFC Seraing 2 : 1 Cercle Bruggy 2.79 3.45 2.46
18:30 Oud Heverlee 1 : 4 Eupen 2.44 3.76 2.64
20:45 Sint Truidense 0 : 2 Kortrijk 2.58 3.15 2.89
 Soccer Belgium 2e Klasse 2021/2022
20:45 Mouscron-Péruwelz 0 : 1 Lommel 2.34 3.33 2.67
 Soccer Belgium Beker van Belgie 2021/2022
19:30 Hoogstraten 5 : 1 Arlon - - -
19:30 Hades 1 : 3 Lyra - - -
20:00 Patro Eisden 0 : 1 Lebbeke FC - - -
20:00 Dender FC 3 : 0 Diest - - -
20:00 Onhaye 4 : 3 Jong Lede - - -
20:00 Wellen 1 : 0 Dessel Sport - - -
20:00 Mandel United 2 : 0 Waregem KRC - - -
 Soccer Bosnia Premier Liga 2021/2022
19:00 Sloboda Tuzla 1 : 2 Sarajevo FK 2.83 3.28 2.20
21:00 Zrinjski Mostar 1 : 1 Tuzla City FK 1.70 3.65 4.12
 Soccer Brazil Serie A 2021
22:00 Atletico Goianiense 1 : 1 Chapecoense AF 1.84 3.28 4.73
 Soccer Bulgaria A PFG 2021/2022
17:45 CSKA 1948 Sofia 2 : 3 Černo More Varna 3.40 3.18 2.06
20:00 Ludogorets Razgrad 5 : 0 Lokomotiva Sofia 1.15 6.89 15.44
 Soccer Chile Primera Division 2021
17:30 Santiago Wanderers 2 : 2 La Serena 3.00 3.19 2.29
20:00 Atletico Nublense 2 : 2 Palestino 2.14 3.26 3.21
22:30 Colo Colo 2 : 0 Antofagasta 1.43 4.31 6.64
 Soccer Colombia Primera División 2021
02:30 América de Cali 0 : 0 Patriotas Tunja 1.36 4.44 7.83
21:00 Deportes Pereira 1 : 1 Independiente Santa Fe 2.95 2.90 2.47
23:00 Atlético Nacional 1 : 0 Deportes Quindío 1.42 4.13 7.17
 Soccer Croatia 1. HNL 2021/2022
18:55 Gorica 1 : 0 Slaven Belupo 1.86 3.33 4.12
21:00 Dinamo Zagreb 1 : 0 Lokomotiva Zagreb 1.38 4.71 6.85
 Soccer Croatia HR Nogometni Cup 2021/2022
17:00 Nehaj Sejn 2 : 0 Borac Imbriovec - - -
17:00 Zagora 1 : 2 Karlovac NK - - -
 Soccer Czech Republic 1. liga 2021/2022
16:00 Zlín 1 : 4 Olomouc 2.32 3.29 2.94
16:00 Mladá Boleslav 3 : 1 Teplice 1.36 4.91 7.48
16:00 Pardubice FK 3 : 0 Bohemians 1905 3.61 3.48 1.97
19:00 Sparta Praha 4 : 0 Hradec Králové 1.19 6.89 12.94
 Soccer Czech Republic 2. liga 2021/2022
17:00 Opava 1 : 1 Chrudim AFK 1.88 3.50 3.56
17:00 Prostějov 3 : 1 Třinec 1.95 3.31 3.45
17:00 Příbram 0 : 2 Sparta Praha B 1.72 3.74 4.20
 Soccer Denmark 1st Division 2021/2022
13:00 Helsingor 3 : 3 Lyngby Kobenhavn 2.96 3.47 2.17
13:30 Fremad Amager 2 : 0 Koge HB 2.52 3.29 2.57
 Soccer Denmark Superligaen 2021/2022
18:00 Odense 2 : 2 Bröndby Kobenhavn 2.18 3.48 3.14
 Soccer Ecuador Primera A 2021
02:00 Macará 1 : 1 Mushuc Runa 2.19 3.20 3.03
22:00 Olmedo Riobamba 0 : 0 Técnico Universitario 3.45 3.31 1.99
 Soccer England Championship 2021/2022
13:30 Q.P.R. 2 : 2 Barnsley 2.09 3.39 3.63
16:00 Coventry 2 : 1 Reading 2.00 3.38 3.93
16:00 Sheffield United 1 : 2 Huddersfield 1.71 3.51 5.38
16:00 Cardiff 3 : 1 Millwall 2.23 3.11 3.54
16:00 Preston 1 : 0 Peterborough 2.29 3.20 3.32
16:00 Bournemouth 2 : 2 Blackpool 1.64 3.81 5.57
16:00 Luton 0 : 5 Birmingham 2.20 3.14 3.61
16:00 Fulham 2 : 0 Hull 1.35 5.01 8.62
16:00 Derby 0 : 0 Middlesbrough 3.05 3.05 2.52
16:00 Blackburn 1 : 2 West Bromwich 3.68 3.44 2.05
16:00 Stoke 1 : 0 Nottingham 1.84 3.47 4.56
 Soccer England Conference National 2021/2022
16:00 Weymouth 0 : 2 Boreham Wood 3.37 3.41 2.00
16:00 Kings Lynn 0 : 1 Southend 2.84 3.38 2.27
16:00 Solihull 2 : 2 Wrexham 2.72 3.45 2.32
16:00 Wealdstone 1 : 2 Woking 3.56 3.45 1.93
16:00 Halifax 1 : 2 Maidenhead United 1.97 3.40 3.58
Postp. Wrexham - : - Solihull - - -
16:00 Torquay 1 : 3 Altrincham 1.79 3.49 4.04
16:00 Barnet 0 : 5 Notts County 4.37 3.76 1.67
Postp. Wrexham - : - Yeovil 1.57 3.71 5.01
16:00 Stockport 1 : 3 Dagenham & Redbridge 1.54 4.00 5.34
16:00 Aldershot 0 : 2 Chesterfield 3.97 3.67 1.79
Postp. Bromley - : - Grimsby 2.60 3.28 2.38
 Soccer England League One 2021/2022
14:15 Rotherham 0 : 2 Sheffield Wednesday 2.20 3.17 3.41
16:00 Wycombe 1 : 0 Lincoln 2.24 3.40 3.07
16:00 Gillingham 2 : 1 Morecambe 2.30 3.35 3.03
16:00 Charlton 0 : 2 Wigan 2.40 3.26 2.91
16:00 Sunderland 1 : 0 AFC Wimbledon 1.74 3.53 4.72
16:00 Fleetwood Town 3 : 2 Cheltenham 2.57 2.97 2.91
16:00 Cambridge 3 : 0 Burton 2.97 3.15 2.42
16:00 Shrewsbury 0 : 3 Plymouth 2.36 3.26 3.00
16:00 Doncaster 0 : 0 Portsmouth 3.37 3.21 2.19
16:00 Bolton 2 : 1 Oxford 2.70 3.48 2.45
16:00 Ipswich 2 : 2 Milton Keynes 1.88 3.56 4.09
16:00 Crewe 0 : 1 Accrington Stanley 2.47 3.39 2.75
 Soccer England League Two 2021/2022
16:00 Tranmere 0 : 1 Newport 2.58 2.90 3.05
16:00 Oldham 1 : 2 Colchester 2.57 3.28 2.68
16:00 Harrogate Town 2 : 1 Barrow 2.24 3.27 3.18
16:00 Forest Green 6 : 3 Crawley Town 1.67 3.53 5.49
16:00 Stevenage 1 : 1 Port Vale 2.71 2.98 2.75
16:00 Northampton 1 : 3 Rochdale 1.94 3.43 3.89
16:00 Exeter 4 : 1 Bristol Rovers 2.40 3.09 3.07
16:00 Scunthorpe 1 : 1 Sutton UTD 3.51 3.09 2.17
16:00 Mansfield 2 : 3 Bradford 2.06 3.21 3.75
16:00 Carlisle 1 : 1 Leyton 2.16 3.14 3.45
16:00 Salford City 0 : 1 Swindon 1.92 3.36 4.01
16:00 Hartlepool 2 : 0 Walsall 2.14 3.30 3.41
 Soccer England Premiership 2021/2022
13:30 Liverpool 2 : 0 Burnley 1.24 6.49 11.85
16:00 Manchester City 5 : 0 Norwich 1.11 9.36 22.00
16:00 Leeds 2 : 2 Everton 2.19 3.48 3.29
16:00 Crystal Palace 0 : 0 Brentford 2.62 3.18 2.82
16:00 Aston Villa 2 : 0 Newcastle 1.80 3.90 4.24
18:30 Brighton 2 : 0 Watford 1.71 3.50 5.69
 Soccer Estonia Meistriliiga 2021
15:00 Kalju Nomme JK 1 : 1 Narva Trans 1.36 4.66 6.60
 Soccer Finland Veikkausliiga 2021
14:00 Inter Turku FC 2 : 0 Ilves Tampere 1.65 3.92 4.93
 Soccer Finland Ykkönen 2021
16:00 KPV Kokkola 3 : 0 PK-35 Helsinki 1.56 3.79 5.21
17:00 Klubi-04 Helsinki 5 : 3 Ekenas IF 3.04 3.41 2.07
 Soccer France Ligue 1 2021/2022
17:00 Monaco 0 : 2 Lens 1.74 3.74 4.85
21:00 St. Etienne 1 : 1 Lille 3.11 3.21 2.39
 Soccer France Ligue 2 2021/2022
15:00 Dijon 2 : 4 Toulouse 4.16 3.55 1.82
19:00 Grenoble 2 : 0 Quevilly 1.92 3.21 4.17
19:00 Valenciennes 1 : 4 Rodez 2.52 3.09 2.86
19:00 Dunkerque 0 : 2 Nimes 3.17 3.03 2.34
19:00 Pau 2 : 0 Bastia 2.48 2.95 3.03
19:00 Caen 1 : 0 Nancy 1.96 3.25 3.93
19:00 Le Havre 2 : 1 Niort 1.99 3.24 3.85
19:00 Amiens 0 : 0 Sochaux 3.02 2.97 2.49
 Soccer Germany 2. Liga 2021/2022
13:30 Paderborn 3 : 1 St. Pauli 2.36 3.49 2.94
13:30 Karlsruher 0 : 0 Bremen 2.17 3.43 3.32
13:30 Regensburg SG 4 : 1 Schalke 04 2.78 3.32 2.56
20:30 Rostock 1 : 3 Dresden 2.69 3.23 2.69
 Soccer Germany 3. Liga 2021/2022
14:00 Kaiserslautern 3 : 0 München 1860 2.67 3.41 2.43
14:00 Braunschweig 2 : 0 Zwickau 2.13 3.36 3.20
14:00 Dortmund (Am.) 0 : 0 Saarbrücken 2.86 3.46 2.27
14:00 Viktoria Köln 2 : 3 Waldhof Mannheim 2.75 3.25 2.46
14:00 Magdeburg FC 2 : 1 Duisburg 1.70 3.78 4.49
14:00 Meppen 2 : 0 Verl SC 2.86 3.35 2.34
 Soccer Germany Bundesliga 2021/2022
15:30 Fürth 1 : 1 Bielefeld 2.56 3.40 2.73
15:30 Freiburg 2 : 1 Dortmund 4.84 4.33 1.63
15:30 Frankfurt Eintracht 0 : 0 Augsburg FC 1.58 4.38 5.25
15:30 Bochum 2 : 0 Mainz 2.75 3.43 2.53
15:35 Hertha Berlin 1 : 2 Wolfsburg 3.20 3.44 2.24
18:30 Leverkusen 4 : 0 Mönchengladbach 2.27 3.62 2.98
 Soccer Hungary NB I 2021/2022
16:00 Debrecen 1 : 2 Zalaegerszeg 1.77 4.22 3.56
18:15 Fehervar 2 : 1 Kisvarda 1.67 3.71 4.60
20:30 Kispet-Honved 3 : 1 Paks SE 2.43 3.60 2.57
 Soccer Iceland Landsbankadeild Karla 2021
16:00 Keflavik IBV 0 : 5 Hafnarfjordur FH 3.01 3.99 1.97
20:00 Breidablik 2 : 0 Akureyri KA 1.43 4.55 6.24
 Soccer Ireland Division 1 2021
20:00 Cobh 0 : 2 UCD Dublin 3.65 4.08 1.76
 Soccer Ireland Premier League 2021
20:45 Sligo Rovers 1 : 2 Derry City 2.21 3.04 3.24
 Soccer Italy Serie A 2021/2022
18:30 Inter Milan 4 : 0 Genoa FC 1.32 5.37 9.87
18:30 Hellas Verona 2 : 3 Sassuolo 2.54 3.45 2.72
20:45 Empoli AC 1 : 3 Lazio Roma 4.42 3.87 1.77
20:45 Torino AC 1 : 2 Atalanta Bergamo 6.08 4.50 1.51
 Soccer Italy Serie B 2021/2022
18:00 Pordenone 0 : 1 Perugia 2.40 3.07 3.10
20:30 Cittadella 1 : 0 Vicenza 2.41 3.08 3.10
 Soccer Japan J League 2021
11:00 Vissel Kobe 1 : 0 Kashima 3.22 3.45 2.11
11:00 Marinos 5 : 0 Vegalta Sendai 1.29 5.69 8.43
12:00 Hiroshima 1 : 1 Kawasaki F. 4.15 3.66 1.78
12:00 Trinita Oita 1 : 1 Sapporo 3.79 3.28 1.97
12:00 Cerezo 3 : 1 Yokohama FC 1.85 3.47 4.07
12:00 Reysol 1 : 3 Sagan Tosu 2.44 3.23 2.81
12:00 Tokushima Vortis 0 : 1 Urawa 3.07 2.93 2.45
12:00 Gamba 0 : 0 Tokyo 2.88 3.39 2.33
12:00 Shonan Bellmare 1 : 1 Shimizu 2.76 3.09 2.59
 Soccer Latvia Virsliga 2021
Postp. Noah Jurmala - : - Spartaks Jurmala - - -
 Soccer Lithuania A Lyga 2021
14:00 Džiugas Telšiai 2 : 2 Panevezys FK 5.15 3.80 1.55
16:00 Banga Gargzdai 1 : 1 Riteriai 3.77 3.61 1.78
 Soccer Mexico Primera Division 2021/2022
04:00 Mazatlan 0 : 3 Tigres 3.09 3.09 2.27
 Soccer Moldavia Divizia Nationala 2021/2022
Postp. Sfintul Gheorghe - : - Serif Tiraspol - - -
19:00 Milsami Orhei 4 : 1 Dinamo Cioburciu - - -
 Soccer Montenegro Prva Liga 2021/2022
19:00 Sutjeska Niksic 3 : 1 Iskra Danilovgrad 1.70 3.26 4.66
20:00 Petrovac OFK 4 : 3 Rudar Plevlja 4.81 3.42 1.64
20:00 Mladost Podgorica 0 : 0 Zeta Golubovci 1.57 3.41 5.84
20:30 Decic Tuzi FK 2 : 2 Buducnost Podgorica 2.42 2.92 2.93
20:30 Mornar Bar 1 : 0 Jezero Plav FK 1.68 3.43 4.70
 Soccer Netherlands Eerste Divisie 2021/2022
16:30 Venlo VVV 2 : 1 Almere City FC 2.90 3.57 2.16
 Soccer Netherlands Eredivisie 2021/2022
18:45 Heerenveen 3 : 2 Waalwijk RKC 1.61 3.72 5.89
20:00 Sparta Rotterdam 1 : 1 Heracles 2.07 3.39 3.61
20:00 Eindhoven PSV 4 : 1 Cambuur Leeuwarden 1.28 6.00 8.92
21:00 Groningen 0 : 0 Utrecht 3.46 3.63 2.03
 Soccer Norway Tippeligaen 2021
18:00 Stabaek 1 : 1 Mjondalen IF 2.32 3.30 3.00
20:00 Stromsgodset 3 : 1 Brann Bergen 1.81 3.79 4.02
 Soccer Poland Ekstraklasa 2021/2022
15:00 Pogon Szczecin 4 : 1 Stal Mielec 1.53 3.94 6.43
17:30 Cracovia Kraków 2 : 1 Jagiellonia Bialystok 2.16 3.21 3.38
20:00 Bogdanka Leczna 1 : 3 Wisla Kraków 3.42 3.43 2.05
 Soccer Poland I Liga 2021/2022
12:40 Jastrzebie GKS 1 : 1 Resovia 2.49 3.28 2.61
18:00 Korona Kielce 1 : 0 Lódz LKS 2.73 3.18 2.46
20:30 Widzew Lódz 2 : 0 Stomil Olsztyn 1.46 4.15 6.39
 Soccer Portugal Liga Sagres 2021/2022
19:00 Gil Vicente 0 : 2 Benfica Lisabon 5.32 3.95 1.63
21:30 Sporting Lisabon 2 : 0 Belenenses 1.19 6.53 15.85
 Soccer Portugal Liga Vitalis 2021/2022
12:00 Amadora 3 : 1 Farense 3.16 3.07 2.26
15:00 Peňafiel 1 : 0 Casa Pia 2.46 3.02 2.86
 Soccer Romania Liga I 2021/2022
17:30 Universitatea Craiova 1 : 0 Gaz Metan Mediaş 1.45 3.86 7.50
20:30 Arges Piesti 0 : 1 CFR Ecomax Cluj 4.43 3.35 1.79
 Soccer Romania Liga II 2021/2022
10:00 Dunarea Calarasi 0 : 3 Gloria Buzău 3.54 3.09 2.00
10:00 Unirea Dej 3 : 0 Viitorul Selimbar 2.55 2.96 2.65
10:00 Dacia Unirea Braila 1 : 1 Astra Giurgiu FC 2.45 3.14 2.61
10:00 Unirea Constanta AFC 0 : 2 ASU Poli Timisoara 5.07 3.30 1.67
10:00 Ripensia Timisoara 1 : 1 Brasov Steagul Renaste 1.99 3.26 3.55
15:00 Politehnica Iasi 2 : 0 Universitaea Cluj 2.91 3.01 2.34
 Soccer Russia Premier League 2021/2022
15:00 Arsenal Tula 1 : 1 Spartak Moskva 5.19 3.78 1.64
15:00 CSKA Moskva 2 : 0 Terek Groznyj 1.59 3.94 5.36
17:00 Ural Sverdlovskaya Oblast 0 : 1 Dynamo Moskva 5.13 3.77 1.65
17:00 Ufa FK 1 : 1 Zenit Peterburg 8.06 4.77 1.36
19:00 Krylya Sovetov Samara 1 : 0 Sochi PFC 2.59 3.26 2.68
 Soccer Scotland First Division 2021/2022
16:00 Hamilton 0 : 2 Kilmarnock FC 3.95 3.47 1.83
16:00 Arbroath 3 : 1 Partick Thistle 2.95 3.21 2.27
16:00 Greenock Morton 2 : 3 Queen of the South 2.33 3.26 2.82
16:00 Caledonian Thistle 1 : 0 Ayr. United 1.78 3.31 4.47
 Soccer Scotland Premier League 2021/2022
16:00 Livingston 1 : 2 Motherwell FC 2.09 3.24 3.54
16:00 Celtic Glasgow 6 : 0 St. Mirren 1.22 6.34 11.40
 Soccer Scotland Second Division 2021/2022
16:00 Dumbarton 1 : 3 Cove Rangers 4.19 3.66 1.72
16:00 Alloa 1 : 1 Queen's Park FC 3.26 3.52 1.97
16:00 Peterhead 2 : 3 Airdrieonians 2.09 3.28 3.17
16:00 Falkirk FC 3 : 0 Clyde 1.54 4.10 5.05
16:00 East Fife 0 : 2 Montrose 3.03 3.47 2.07
 Soccer Scotland Third Division 2021/2022
16:00 Stranraer 0 : 3 Stirling Albion 2.53 3.26 2.46
16:00 Albion Rovers 0 : 1 Annan Athletic 2.83 3.69 2.08
16:00 Stenhousehuir 1 : 1 Cowdenbeath 2.17 3.35 2.87
16:00 Kelty Hearts 1 : 0 Edinburgh City 1.39 4.52 6.03
16:00 Elgin 1 : 1 Forfar 2.25 3.41 2.70
 Soccer Serbia Super Liga 2021/2022
16:55 Radnički Kragujevac 0 : 3 Čukarički Bělehrad 6.39 3.43 1.55
19:00 Crvena zvezda Bělehrad 3 : 1 Bačka Topola 1.17 6.35 14.19
 Soccer Slovakia Super Liga 2021/2022
18:00 Michalovce 2 : 1 Liptovský Mikuláš 1.64 3.90 4.55
18:00 Ružomberok 0 : 0 Trnava 3.13 3.27 2.14
 Soccer Slovenia 1. SNL 2021/2022
17:00 Radomlje 0 : 1 Tabor 2.34 3.27 2.74
20:15 Koper 2 : 0 Maribor Branik NK 3.10 3.42 2.07
 Soccer Slovenia 2. SNL 2021/2022
17:00 Rogaška 3 : 0 Bilje 2.91 3.27 2.13
17:00 Beltinci NK 0 : 1 Triglav 3.20 3.50 1.92
17:00 Nafta 0 : 0 Primorje Ajdovščina 1.51 4.10 5.00
17:00 Krsko Posavje 0 : 2 Ilirija 2.04 3.43 3.01
17:00 Dekani 0 : 1 Rudar Velenje 2.28 3.23 2.73
 Soccer Spain La Liga 2021/2022
17:00 Alavés 0 : 1 Mallorca 2.28 3.17 3.38
19:30 Granada 1 : 1 Valencia FC 2.51 3.28 2.87
19:30 Espaňol Barcelona 0 : 0 Villarreal 2.90 3.28 2.50
22:00 Bilbao 1 : 1 Barcelona FC 4.22 3.84 1.80
 Soccer Spain Liga BBVA 2021/2022
17:00 Lugo 0 : 0 San Sebastian Real B 2.51 2.93 3.02
19:30 Tenerife CD 0 : 0 Gijon Sporting 2.21 2.91 3.69
22:00 Alcorcón 0 : 2 Fuenlabrada 2.59 2.80 3.07
 Soccer Sweden Allsvenskan 2021
15:00 Malmö FF 3 : 0 Degerfors 1.25 6.44 9.10
 Soccer Sweden Superettan 2021
15:00 Värnamo IFK 2 : 0 Landskrona 1.85 3.39 3.99
17:00 Brage 3 : 3 Västeras 2.22 3.54 2.81
 Soccer Switzerland Challenge League 2021/2022
18:00 Yverdon 1 : 1 Xamax Neuchatel 3.23 3.56 1.98
18:00 Aarau FC 5 : 2 Stade Lausanne Ouchy 1.72 3.75 4.07
 Soccer Switzerland Super League 2021/2022
18:00 Curych FC 2 : 1 Grasshoppers Curych 1.85 3.68 3.87
Postp. Young Boys Bern - : - Lugano AC 1.47 4.51 6.12
20:30 St. Gallen 1 : 1 Sion FC 1.52 4.68 5.12
 Soccer Turkey Super League 2021/2022
18:15 Kasimpasa SK Istanbul 2 : 0 Giresunspor K 2.23 3.30 3.13
18:15 Caykur Rizespor 0 : 0 Fatih Karagümrük 2.66 3.25 2.57
20:45 Gaziantepspor BB 0 : 0 Besiktas 4.41 3.89 1.70
20:45 Alanyaspor K 1 : 4 Altay Izmir 2.29 3.15 3.16
 Soccer Ucraine Premier League 2021/2022
16:00 Veres Rivne 1 : 0 Minai 1.96 3.31 3.52
18:30 Dněpr Dněpropetrovsk 2 : 0 Rukh Vynnyky 1.68 3.61 4.51
18:30 Černomorec Oděsa 0 : 3 Doněck Šachtor 8.48 5.09 1.28
 Soccer United States MLS 2021
04:30 Los Angeles Galaxy 1 : 2 San Jose Earthquakes 1.82 3.75 4.23
21:30 Minnesota United FC 0 : 0 Kansas City Wiz 2.34 3.53 2.91
23:30 Columbus Crew 1 : 2 Seattle Sounders 2.48 3.34 2.82
 Soccer Uruguay Primera Division 2021
15:15 Liverpool Montevideo 3 : 0 Cerrito CS 1.63 3.57 5.07
17:30 Deportivo Maldonado 0 : 2 Boston River 2.62 2.82 2.78
20:00 River Plate (URU) 2 : 0 Nacional 3.44 3.34 1.99
 Soccer Venezuela Primera Division 2021
00:15 UCV FC 1 : 0 Lala AC 1.50 3.85 5.58
22:00 Deportivo La Guaira 3 : 1 Gran Valencia 1.61 3.42 5.29
 Soccer Wales Premier League 2021/2022
15:30 The New Saints FC 5 : 3 Caernarfon Town 1.13 7.38 14.69
15:30 Penybont 1 : 1 Newtown AFC 2.09 3.58 2.86
15:30 Flint Town United 4 : 0 Newi Cefn Druids 1.17 6.54 12.31
18:15 Barry Town 0 : 0 Bala Town 4.06 3.60 1.71

Sport statistics

  • soccer, basketball, handball and icehockey statistics from more than 150 leagues (results, tables, fixtures, other usefull statistics, bookies odds etc.)
  • other useful things: comparision of teams and leagues, streaks, selections, predictions, head-to-head
  • the statistics are updated three times each day
  • RSS feeds for the upcoming matches from each sport, just click on the RSS feed in the URL field of your browser
  • archived competitions, most of them from 2003

For a detailed description of all functions and their usage check our Help page.